createdAt,value
2018-07-07T00:01:07.565Z,8.53
2018-07-07T00:03:37.424Z,8.57
2018-07-07T00:06:07.308Z,9.27
2018-07-07T00:08:37.319Z,9.30
2018-07-07T00:11:07.618Z,8.70
2018-07-07T00:13:37.509Z,9.47
2018-07-07T00:16:07.477Z,9.60
2018-07-07T00:18:37.353Z,10.17
2018-07-07T00:21:07.513Z,10.13
2018-07-07T00:23:37.180Z,10.07
2018-07-07T00:26:07.094Z,10.73
2018-07-07T00:28:36.992Z,10.60
2018-07-07T00:31:06.936Z,10.23
2018-07-07T00:33:36.727Z,9.90
2018-07-07T00:36:06.592Z,10.13
2018-07-07T00:38:36.356Z,9.83
2018-07-07T00:41:06.695Z,9.97
2018-07-07T00:43:36.609Z,11.00
2018-07-07T00:46:06.672Z,10.27
2018-07-07T00:48:36.541Z,9.90
2018-07-07T00:51:06.613Z,11.20
2018-07-07T00:53:36.375Z,11.23
2018-07-07T00:56:06.456Z,11.13
2018-07-07T00:58:36.553Z,9.63
2018-07-07T01:01:06.552Z,9.90
2018-07-07T01:03:37.139Z,9.63
2018-07-07T01:06:07.130Z,9.27
2018-07-07T01:08:36.919Z,9.53
2018-07-07T01:11:06.907Z,10.73
2018-07-07T01:13:37.050Z,10.33
2018-07-07T01:16:06.780Z,9.30
2018-07-07T01:18:36.712Z,9.13
2018-07-07T01:21:06.514Z,8.78
2018-07-07T01:23:36.375Z,9.27
2018-07-07T01:26:07.320Z,8.50
2018-07-07T01:28:37.376Z,8.23
2018-07-07T01:31:07.617Z,8.53
2018-07-07T01:33:37.805Z,8.73
2018-07-07T01:36:07.866Z,8.50
2018-07-07T01:38:37.701Z,8.97
2018-07-07T01:41:07.637Z,8.33
2018-07-07T01:43:37.600Z,9.07
2018-07-07T01:46:07.444Z,9.00
2018-07-07T01:48:37.555Z,9.17
2018-07-07T01:51:07.454Z,9.23
2018-07-07T01:53:37.404Z,8.80
2018-07-07T01:56:07.196Z,9.67
2018-07-07T01:58:37.235Z,9.27
2018-07-07T02:01:07.256Z,8.90
2018-07-07T02:03:37.035Z,9.37
2018-07-07T02:06:07.004Z,9.70
2018-07-07T02:08:36.927Z,9.30
2018-07-07T02:11:06.962Z,9.23
2018-07-07T02:13:36.879Z,9.00
2018-07-07T02:16:06.780Z,9.43
2018-07-07T02:18:36.836Z,8.40
2018-07-07T02:21:06.703Z,9.20
2018-07-07T02:23:36.754Z,8.20
2018-07-07T02:26:06.937Z,9.20
2018-07-07T02:28:36.783Z,9.67
2018-07-07T02:31:06.738Z,8.93
2018-07-07T02:33:36.635Z,9.20
2018-07-07T02:36:06.415Z,9.23
2018-07-07T02:38:36.666Z,8.40
2018-07-07T02:41:06.783Z,9.20
2018-07-07T02:43:36.798Z,8.90
2018-07-07T02:46:06.606Z,9.20
2018-07-07T02:48:36.444Z,8.60
2018-07-07T02:51:06.386Z,9.10
2018-07-07T02:53:36.465Z,8.67
2018-07-07T02:56:06.327Z,9.03
2018-07-07T02:58:36.094Z,9.27
2018-07-07T03:01:06.159Z,8.63
2018-07-07T03:03:36.440Z,8.43
2018-07-07T03:06:06.278Z,9.10
2018-07-07T03:08:36.299Z,8.37
2018-07-07T03:11:06.213Z,7.58
2018-07-07T03:13:35.968Z,8.03
2018-07-07T03:17:25.854Z,8.43
2018-07-07T03:19:55.849Z,6.43
2018-07-07T03:22:26.745Z,6.83
2018-07-07T03:24:56.427Z,7.77
2018-07-07T03:27:26.246Z,6.83
2018-07-07T03:29:55.974Z,8.13
2018-07-07T03:32:25.960Z,6.87
2018-07-07T03:34:55.691Z,7.20
2018-07-07T03:37:25.820Z,7.00
2018-07-07T03:39:55.630Z,7.03
2018-07-07T03:42:25.770Z,6.83
2018-07-07T03:44:55.853Z,6.87
2018-07-07T03:47:25.702Z,6.50
2018-07-07T03:49:56.585Z,6.13
2018-07-07T03:52:30.388Z,6.13
2018-07-07T03:55:00.307Z,6.00
2018-07-07T03:57:30.000Z,5.70
2018-07-07T03:59:59.919Z,5.70
2018-07-07T04:02:29.778Z,5.60
2018-07-07T04:04:59.739Z,5.77
2018-07-07T04:07:29.686Z,5.53
2018-07-07T04:09:59.392Z,5.80
2018-07-07T04:12:29.272Z,5.27
2018-07-07T04:14:59.108Z,5.10
2018-07-07T04:17:29.018Z,5.10
2018-07-07T04:19:58.963Z,4.70
2018-07-07T04:22:28.868Z,4.60
2018-07-07T04:24:58.915Z,4.33
2018-07-07T04:27:28.907Z,5.20
2018-07-07T04:29:58.849Z,4.40
2018-07-07T04:32:28.738Z,4.63
2018-07-07T04:34:58.573Z,4.13
2018-07-07T04:37:28.357Z,4.20
2018-07-07T04:39:58.291Z,4.47
2018-07-07T04:42:27.908Z,3.97
2018-07-07T04:44:57.813Z,4.00
2018-07-07T04:47:27.552Z,3.67
2018-07-07T04:49:57.507Z,3.97
2018-07-07T04:52:27.155Z,4.10
2018-07-07T04:54:57.066Z,3.63
2018-07-07T04:57:26.806Z,3.73
2018-07-07T04:59:56.727Z,3.80
2018-07-07T05:02:27.672Z,3.70
2018-07-07T05:04:57.590Z,4.33
2018-07-07T05:07:27.561Z,4.70
2018-07-07T05:09:57.394Z,3.73
2018-07-07T05:12:27.224Z,3.50
2018-07-07T05:14:57.213Z,3.07
2018-07-07T05:17:26.965Z,3.40
2018-07-07T05:19:57.321Z,3.33
2018-07-07T05:22:27.098Z,3.20
2018-07-07T05:24:57.036Z,3.37
2018-07-07T05:27:27.029Z,3.07
2018-07-07T05:29:56.852Z,3.37
2018-07-07T05:32:26.700Z,3.00
2018-07-07T05:34:56.500Z,3.20
2018-07-07T05:37:26.800Z,3.13
2018-07-07T05:39:56.625Z,3.33
2018-07-07T05:42:26.624Z,3.40
2018-07-07T05:44:56.408Z,3.23
2018-07-07T05:47:26.327Z,3.13
2018-07-07T05:49:56.041Z,3.63
2018-07-07T05:52:25.927Z,3.43
2018-07-07T05:54:55.749Z,3.17
2018-07-07T05:57:27.617Z,3.07
2018-07-07T05:59:57.718Z,3.20
2018-07-07T06:02:28.549Z,3.20
2018-07-07T06:04:58.692Z,3.13
2018-07-07T06:07:28.612Z,3.13
2018-07-07T06:09:58.634Z,2.63
2018-07-07T06:12:28.510Z,3.00
2018-07-07T06:14:58.229Z,3.60
2018-07-07T06:17:28.188Z,3.70
2018-07-07T06:19:58.176Z,3.77
2018-07-07T06:22:28.135Z,3.00
2018-07-07T06:24:58.113Z,2.80
2018-07-07T06:27:27.960Z,4.30
2018-07-07T06:29:57.931Z,2.90
2018-07-07T06:32:27.877Z,3.07
2018-07-07T06:34:57.672Z,3.00
2018-07-07T06:37:27.982Z,2.50
2018-07-07T06:39:57.819Z,3.10
2018-07-07T06:42:27.680Z,3.40
2018-07-07T06:44:57.597Z,2.87
2018-07-07T06:47:27.446Z,4.67
2018-07-07T06:49:57.441Z,2.63
2018-07-07T06:52:27.264Z,2.50
2018-07-07T06:54:57.171Z,2.80
2018-07-07T06:57:27.069Z,3.27
2018-07-07T06:59:57.045Z,2.63
2018-07-07T07:02:26.992Z,2.60
2018-07-07T07:04:56.875Z,3.10
2018-07-07T07:07:26.846Z,2.57
2018-07-07T07:09:57.769Z,2.00
2018-07-07T07:12:27.697Z,2.37
2018-07-07T07:14:58.113Z,2.17
2018-07-07T07:17:28.786Z,2.30
2018-07-07T07:19:59.401Z,2.20
2018-07-07T07:22:29.822Z,2.50
2018-07-07T07:25:00.202Z,2.43
2018-07-07T07:27:31.000Z,2.60
2018-07-07T07:30:01.320Z,2.53
2018-07-07T07:32:32.976Z,2.67
2018-07-07T07:35:03.752Z,2.87
2018-07-07T07:37:34.589Z,3.20
2018-07-07T07:40:05.225Z,2.60
2018-07-07T07:42:35.501Z,3.07
2018-07-07T07:45:05.290Z,3.00
2018-07-07T07:47:35.279Z,3.03
2018-07-07T07:50:05.261Z,2.50
2018-07-07T07:52:35.201Z,2.67
2018-07-07T07:55:05.269Z,3.20
2018-07-07T07:57:35.272Z,2.73
2018-07-07T08:00:05.258Z,2.77
2018-07-07T08:02:35.054Z,2.03
2018-07-07T08:05:06.916Z,2.70
2018-07-07T08:07:36.634Z,2.83
2018-07-07T08:10:07.588Z,2.62
2018-07-07T08:12:37.476Z,3.90
2018-07-07T08:15:07.553Z,2.87
2018-07-07T08:17:37.389Z,2.53
2018-07-07T08:20:07.019Z,3.20
2018-07-07T08:22:36.960Z,2.53
2018-07-07T08:25:06.923Z,2.43
2018-07-07T08:27:36.706Z,2.93
2018-07-07T08:30:06.743Z,3.00
2018-07-07T08:32:36.804Z,2.67
2018-07-07T08:35:06.913Z,3.03
2018-07-07T08:37:36.807Z,2.03
2018-07-07T08:40:06.599Z,2.50
2018-07-07T08:42:36.536Z,2.97
2018-07-07T08:45:06.389Z,2.53
2018-07-07T08:47:36.429Z,2.80
2018-07-07T08:50:06.891Z,2.22
2018-07-07T08:52:36.747Z,2.73
2018-07-07T08:55:06.684Z,2.97
2018-07-07T08:57:36.653Z,2.57
2018-07-07T09:00:06.652Z,3.63
2018-07-07T09:02:36.294Z,3.77
2018-07-07T09:05:06.169Z,2.67
2018-07-07T09:07:36.092Z,2.83
2018-07-07T09:10:07.885Z,3.33
2018-07-07T09:12:37.709Z,2.77
2018-07-07T09:15:07.710Z,2.73
2018-07-07T09:17:37.805Z,2.40
2018-07-07T09:20:07.760Z,2.33
2018-07-07T09:22:37.884Z,2.47
2018-07-07T09:25:08.335Z,2.33
2018-07-07T09:27:38.219Z,2.23
2018-07-07T09:30:08.264Z,2.57
2018-07-07T09:32:38.104Z,2.53
2018-07-07T09:35:11.199Z,3.13
2018-07-07T09:37:40.906Z,2.40
2018-07-07T09:40:10.536Z,2.70
2018-07-07T09:42:40.189Z,2.47
2018-07-07T09:45:09.875Z,2.63
2018-07-07T09:47:39.411Z,2.40
2018-07-07T09:50:08.989Z,2.60
2018-07-07T09:52:38.521Z,3.63
2018-07-07T09:55:08.135Z,2.20
2018-07-07T09:57:37.795Z,1.90
2018-07-07T10:00:11.613Z,2.53
2018-07-07T10:02:41.108Z,2.20
2018-07-07T10:05:10.674Z,2.43
2018-07-07T10:07:40.344Z,2.40
2018-07-07T10:10:10.354Z,1.97
2018-07-07T10:12:39.998Z,2.10
2018-07-07T10:15:09.621Z,1.80
2018-07-07T10:17:39.142Z,2.20
2018-07-07T10:20:08.848Z,1.77
2018-07-07T10:22:38.562Z,2.40
2018-07-07T10:25:08.202Z,3.43
2018-07-07T10:27:37.745Z,4.50
2018-07-07T10:30:11.109Z,1.90
2018-07-07T10:32:40.696Z,1.93
2018-07-07T10:35:10.368Z,1.80
2018-07-07T10:37:39.960Z,1.83
2018-07-07T10:40:09.238Z,2.43
2018-07-07T10:42:38.861Z,2.13
2018-07-07T10:45:08.518Z,2.27
2018-07-07T10:47:38.160Z,2.67
2018-07-07T10:50:07.878Z,4.67
2018-07-07T10:52:38.284Z,2.33
2018-07-07T10:55:08.056Z,2.10
2018-07-07T10:57:37.755Z,2.07
2018-07-07T11:00:08.086Z,2.07
2018-07-07T11:02:37.667Z,3.70
2018-07-07T11:05:07.493Z,2.10
2018-07-07T11:07:37.044Z,3.30
2018-07-07T11:10:07.434Z,2.15
2018-07-07T11:12:37.076Z,2.93
2018-07-07T11:15:06.695Z,2.13
2018-07-07T11:17:36.203Z,1.87
2018-07-07T11:20:06.155Z,1.90
2018-07-07T11:22:35.675Z,1.83
2018-07-07T11:25:05.279Z,2.20
2018-07-07T11:27:34.776Z,1.87
2018-07-07T11:30:04.409Z,1.70
2018-07-07T11:32:34.069Z,1.70
2018-07-07T11:35:03.600Z,1.90
2018-07-07T11:37:33.283Z,2.53
2018-07-07T11:40:02.908Z,1.70
2018-07-07T11:42:32.571Z,1.80
2018-07-07T11:45:02.040Z,1.73
2018-07-07T11:47:31.805Z,1.60
2018-07-07T11:50:01.464Z,2.00
2018-07-07T11:52:31.090Z,1.77
2018-07-07T11:55:01.709Z,1.97
2018-07-07T11:57:31.364Z,1.83
2018-07-07T12:00:00.975Z,2.33
2018-07-07T12:02:30.506Z,2.10
2018-07-07T12:05:00.060Z,1.77
2018-07-07T12:07:29.620Z,2.33
2018-07-07T12:09:59.193Z,1.93
2018-07-07T12:12:28.862Z,1.87
2018-07-07T12:14:58.522Z,2.07
2018-07-07T12:17:28.056Z,1.60
2018-07-07T12:19:58.844Z,1.83
2018-07-07T12:22:28.492Z,1.53
2018-07-07T12:24:58.339Z,1.33
2018-07-07T12:27:28.000Z,1.60
2018-07-07T12:29:57.557Z,1.80
2018-07-07T12:32:27.258Z,1.97
2018-07-07T12:34:56.972Z,1.80
2018-07-07T12:37:26.484Z,1.67
2018-07-07T12:39:56.040Z,1.47
2018-07-07T12:42:25.597Z,2.60
2018-07-07T12:44:55.445Z,1.50
2018-07-07T12:47:24.951Z,2.33
2018-07-07T12:49:54.656Z,2.43
2018-07-07T12:52:24.337Z,1.52
2018-07-07T12:54:54.068Z,1.23
2018-07-07T12:57:23.680Z,1.90
2018-07-07T12:59:53.248Z,1.60
2018-07-07T13:02:22.750Z,1.63
2018-07-07T13:04:52.381Z,2.10
2018-07-07T13:07:23.910Z,1.70
2018-07-07T13:09:53.493Z,1.50
2018-07-07T13:12:23.163Z,1.57
2018-07-07T13:14:52.872Z,1.30
2018-07-07T13:17:22.671Z,1.30
2018-07-07T13:19:52.136Z,1.50
2018-07-07T13:22:21.666Z,1.37
2018-07-07T13:24:51.207Z,1.63
2018-07-07T13:27:20.798Z,1.43
2018-07-07T13:29:50.376Z,1.50
2018-07-07T13:32:20.060Z,2.80
2018-07-07T13:34:49.751Z,1.50
2018-07-07T13:37:19.362Z,1.70
2018-07-07T13:39:48.981Z,1.30
2018-07-07T13:42:18.467Z,1.60
2018-07-07T13:44:48.063Z,1.43
2018-07-07T13:47:17.643Z,1.40
2018-07-07T13:49:47.255Z,1.50
2018-07-07T13:52:16.848Z,3.50
2018-07-07T13:54:46.387Z,1.20
2018-07-07T13:57:16.077Z,1.60
2018-07-07T13:59:45.639Z,1.40
2018-07-07T14:02:15.183Z,1.40
2018-07-07T14:04:44.817Z,1.40
2018-07-07T14:07:14.510Z,1.17
2018-07-07T14:09:44.113Z,1.43
2018-07-07T14:12:13.623Z,1.30
2018-07-07T14:14:43.143Z,1.90
2018-07-07T14:17:12.669Z,2.90
2018-07-07T14:19:42.277Z,3.20
2018-07-07T14:22:11.856Z,1.50
2018-07-07T14:24:41.390Z,1.47
2018-07-07T14:27:11.038Z,1.90
2018-07-07T14:29:40.757Z,1.67
2018-07-07T14:32:10.316Z,1.90
2018-07-07T14:34:39.931Z,1.73
2018-07-07T14:37:09.523Z,1.83
2018-07-07T14:40:05.575Z,1.90
2018-07-07T14:42:46.553Z,1.97
2018-07-07T14:45:23.293Z,2.03
2018-07-07T14:47:53.917Z,2.00
2018-07-07T14:50:24.727Z,1.90
2018-07-07T14:52:54.397Z,2.40
2018-07-07T14:55:25.346Z,2.40
2018-07-07T14:57:54.969Z,1.90
2018-07-07T15:00:25.970Z,1.90
2018-07-07T15:02:56.492Z,2.20
2018-07-07T15:05:26.092Z,1.80
2018-07-07T15:07:55.616Z,1.93
2018-07-07T15:10:25.199Z,1.30
2018-07-07T15:12:54.748Z,1.60
2018-07-07T15:15:24.299Z,1.90
2018-07-07T15:17:54.058Z,2.10
2018-07-07T15:20:23.768Z,1.70
2018-07-07T15:22:53.328Z,1.93
2018-07-07T15:25:22.940Z,1.60
2018-07-07T15:27:52.489Z,2.13
2018-07-07T15:30:22.038Z,1.75
2018-07-07T15:32:51.660Z,2.02
2018-07-07T15:35:21.226Z,1.80
2018-07-07T15:37:50.711Z,1.80
2018-07-07T15:40:20.257Z,2.08
2018-07-07T15:42:49.795Z,1.90
2018-07-07T15:45:19.364Z,1.90
2018-07-07T15:47:48.972Z,1.92
2018-07-07T15:50:18.488Z,2.17
2018-07-07T15:52:48.060Z,2.00
2018-07-07T15:55:17.660Z,1.80
2018-07-07T15:57:47.289Z,1.80
2018-07-07T16:00:16.782Z,1.80
2018-07-07T16:02:53.295Z,1.93
2018-07-07T16:05:22.893Z,1.50
2018-07-07T16:07:53.543Z,1.50
2018-07-07T16:10:23.296Z,2.08
2018-07-07T16:12:52.985Z,1.60
2018-07-07T16:15:22.497Z,5.10
2018-07-07T16:17:52.161Z,2.00
2018-07-07T16:20:21.681Z,1.90
2018-07-07T16:22:51.178Z,1.80
2018-07-07T16:25:20.779Z,1.80
2018-07-07T16:27:50.374Z,1.80
2018-07-07T16:30:19.975Z,2.03
2018-07-07T16:32:49.572Z,1.90
2018-07-07T16:35:19.084Z,2.00
2018-07-07T16:37:48.607Z,2.20
2018-07-07T16:40:18.307Z,2.20
2018-07-07T16:42:48.035Z,2.50
2018-07-07T16:45:17.748Z,2.50
2018-07-07T16:47:48.532Z,2.30
2018-07-07T16:50:18.319Z,2.30
2018-07-07T16:52:47.929Z,2.23
2018-07-07T16:55:17.812Z,2.10
2018-07-07T16:57:47.644Z,8.10
2018-07-07T17:00:17.300Z,5.33
2018-07-07T17:02:47.006Z,2.77
2018-07-07T17:05:16.761Z,2.47
2018-07-07T17:07:48.826Z,2.90
2018-07-07T17:10:19.517Z,4.13
2018-07-07T17:12:49.158Z,4.00
2018-07-07T17:15:18.924Z,6.13
2018-07-07T17:17:49.764Z,13.30
2018-07-07T17:20:19.469Z,11.23
2018-07-07T17:22:50.002Z,10.83
2018-07-07T17:25:19.707Z,10.57
2018-07-07T17:27:49.311Z,4.47
2018-07-07T17:30:19.200Z,3.77
2018-07-07T17:32:49.335Z,3.07
2018-07-07T17:35:19.535Z,2.40
2018-07-07T17:37:49.279Z,2.90
2018-07-07T17:40:18.896Z,3.30
2018-07-07T17:42:48.800Z,12.17
2018-07-07T17:45:19.027Z,7.87
2018-07-07T17:47:48.689Z,6.30
2018-07-07T17:50:18.499Z,4.07
2018-07-07T17:52:49.281Z,4.00
2018-07-07T17:55:18.951Z,3.60
2018-07-07T17:57:48.694Z,4.70
2018-07-07T18:00:18.671Z,3.87
2018-07-07T18:02:48.433Z,4.50
2018-07-07T18:05:18.004Z,5.07
2018-07-07T18:07:47.696Z,4.07
2018-07-07T18:10:17.209Z,5.23
2018-07-07T18:12:46.799Z,4.60
2018-07-07T18:15:16.481Z,3.93
2018-07-07T18:17:46.038Z,4.50
2018-07-07T18:20:15.828Z,4.60
2018-07-07T18:22:45.363Z,4.27
2018-07-07T18:25:15.052Z,3.83
2018-07-07T18:27:44.652Z,3.07
2018-07-07T18:30:14.303Z,2.83
2018-07-07T18:32:43.926Z,3.33
2018-07-07T18:35:13.578Z,2.57
2018-07-07T18:37:43.192Z,2.50
2018-07-07T18:40:12.786Z,2.93
2018-07-07T18:42:43.327Z,2.60
2018-07-07T18:45:13.082Z,2.83
2018-07-07T18:47:42.578Z,2.63
2018-07-07T18:50:12.287Z,3.07
2018-07-07T18:52:41.905Z,3.07
2018-07-07T18:55:11.601Z,2.87
2018-07-07T18:57:41.267Z,2.93
2018-07-07T19:00:11.004Z,3.70
2018-07-07T19:02:40.607Z,3.73
2018-07-07T19:05:10.156Z,4.50
2018-07-07T19:07:39.843Z,3.90
2018-07-07T19:10:09.619Z,5.47
2018-07-07T19:12:39.284Z,5.43
2018-07-07T19:15:13.899Z,6.27
2018-07-07T19:17:43.490Z,5.13
2018-07-07T19:20:18.057Z,4.90
2018-07-07T19:22:52.703Z,6.03
2018-07-07T19:25:27.313Z,6.50
2018-07-07T19:27:57.065Z,6.43
2018-07-07T19:30:27.034Z,5.77
2018-07-07T19:33:02.922Z,5.40
2018-07-07T19:35:37.557Z,6.37
2018-07-07T19:38:07.399Z,5.47
2018-07-07T19:40:37.089Z,6.13
2018-07-07T19:43:06.747Z,5.53
2018-07-07T19:45:36.406Z,5.10
2018-07-07T19:48:06.189Z,4.80
2018-07-07T19:50:35.758Z,5.03
2018-07-07T19:53:05.553Z,4.70
2018-07-07T19:55:35.251Z,5.10
2018-07-07T19:58:04.914Z,5.00
2018-07-07T20:00:34.575Z,4.67
2018-07-07T20:03:04.316Z,5.00
2018-07-07T20:05:33.966Z,4.90
2018-07-07T20:08:03.620Z,5.60
2018-07-07T20:10:33.247Z,5.43
2018-07-07T20:13:03.076Z,5.33
2018-07-07T20:15:43.252Z,5.10
2018-07-07T20:18:12.899Z,4.80
2018-07-07T20:20:51.081Z,4.53
2018-07-07T20:23:20.724Z,4.77
2018-07-07T20:25:55.505Z,4.27
2018-07-07T20:28:30.139Z,4.07
2018-07-07T20:31:00.086Z,3.90
2018-07-07T20:33:30.966Z,3.53
2018-07-07T20:36:00.730Z,3.10
2018-07-07T20:38:30.326Z,2.90
2018-07-07T20:41:01.058Z,3.70
2018-07-07T20:43:30.656Z,3.40
2018-07-07T20:46:00.252Z,3.20
2018-07-07T20:48:29.736Z,3.10
2018-07-07T20:50:59.342Z,3.27
2018-07-07T20:53:28.975Z,3.40
2018-07-07T20:55:58.757Z,4.17
2018-07-07T20:58:28.489Z,3.33
2018-07-07T21:00:58.136Z,3.63
2018-07-07T21:03:27.826Z,3.33
2018-07-07T21:05:57.416Z,3.35
2018-07-07T21:08:28.140Z,3.70
2018-07-07T21:10:57.827Z,3.30
2018-07-07T21:13:27.542Z,3.33
2018-07-07T21:15:58.369Z,3.07
2018-07-07T21:18:28.197Z,3.23
2018-07-07T21:20:58.004Z,3.30
2018-07-07T21:23:27.635Z,3.40
2018-07-07T21:25:57.236Z,4.00
2018-07-07T21:28:26.834Z,4.33
2018-07-07T21:30:56.539Z,4.17
2018-07-07T21:33:26.090Z,4.30
2018-07-07T21:35:55.638Z,3.90
2018-07-07T21:38:25.171Z,4.20
2018-07-07T21:40:54.750Z,4.17
2018-07-07T21:43:24.302Z,3.80
2018-07-07T21:45:53.991Z,3.33
2018-07-07T21:48:23.633Z,3.93
2018-07-07T21:50:53.242Z,3.90
2018-07-07T21:53:23.068Z,4.33
2018-07-07T21:55:52.637Z,4.50
2018-07-07T21:58:28.414Z,4.50
2018-07-07T22:01:11.528Z,4.67
2018-07-07T22:03:46.469Z,5.07
2018-07-07T22:06:21.119Z,5.57
2018-07-07T22:08:50.900Z,5.40
2018-07-07T22:11:20.512Z,5.63
2018-07-07T22:13:50.311Z,4.63
2018-07-07T22:16:19.792Z,5.60
2018-07-07T22:18:49.310Z,8.57
2018-07-07T22:21:29.504Z,6.60
2018-07-07T22:24:01.023Z,5.50
2018-07-07T22:26:31.593Z,5.80
2018-07-07T22:29:01.248Z,4.30
2018-07-07T22:31:30.785Z,3.83
2018-07-07T22:34:00.277Z,4.03
2018-07-07T22:36:34.829Z,3.97
2018-07-07T22:39:04.852Z,3.73
2018-07-07T22:41:44.901Z,4.07
2018-07-07T22:44:14.512Z,4.20
2018-07-07T22:46:44.091Z,3.53
2018-07-07T22:49:13.647Z,4.00
2018-07-07T22:51:43.301Z,4.50
2018-07-07T22:54:13.274Z,5.47
2018-07-07T22:56:43.305Z,5.10
2018-07-07T22:59:13.616Z,4.43
2018-07-07T23:01:43.299Z,4.70
2018-07-07T23:04:12.768Z,5.53
2018-07-07T23:06:43.467Z,5.60
2018-07-07T23:09:14.890Z,6.33
2018-07-07T23:11:44.560Z,5.80
2018-07-07T23:14:14.131Z,5.80
2018-07-07T23:16:43.672Z,6.57
2018-07-07T23:19:13.316Z,6.10
2018-07-07T23:21:42.834Z,5.57
2018-07-07T23:24:12.492Z,5.33
2018-07-07T23:26:42.118Z,5.30
2018-07-07T23:29:11.878Z,4.93
2018-07-07T23:31:41.448Z,5.87
2018-07-07T23:34:12.112Z,5.60
2018-07-07T23:36:41.624Z,5.30
2018-07-07T23:39:11.279Z,5.17
2018-07-07T23:41:41.952Z,5.53
2018-07-07T23:44:11.484Z,6.97
2018-07-07T23:46:42.091Z,6.67
2018-07-07T23:49:11.634Z,8.67
2018-07-07T23:51:41.176Z,7.80
2018-07-07T23:54:10.717Z,6.10
2018-07-07T23:56:40.345Z,5.80
2018-07-07T23:59:09.905Z,4.93
